TimeCST,TemperatureF,Dew PointF,Humidity,Sea Level PressureIn,VisibilityMPH,Wind Direction,Wind SpeedMPH,Gust SpeedMPH,PrecipitationIn,Events,Conditions,WindDirDegrees,DateUTC
12:15 AM,37.4,37.4,100,30.10,7.0,Calm,Calm,-,N/A,,Clear,0,2012-11-20 06:15:00
12:55 AM,37.4,35.6,93,30.10,7.0,Calm,Calm,-,N/A,,Clear,0,2012-11-20 06:55:00
1:15 AM,35.6,35.6,100,30.10,10.0,Calm,Calm,-,N/A,,Clear,0,2012-11-20 07:15:00
1:35 AM,35.6,35.6,100,30.10,7.0,Calm,Calm,-,N/A,,Clear,0,2012-11-20 07:35:00
1:55 AM,35.6,33.8,93,30.10,5.0,Calm,Calm,-,N/A,,Clear,0,2012-11-20 07:55:00
2:15 AM,35.6,35.6,100,30.10,7.0,Calm,Calm,-,N/A,,Clear,0,2012-11-20 08:15:00
2:55 AM,35.6,33.8,93,30.11,10.0,Calm,Calm,-,N/A,,Clear,0,2012-11-20 08:55:00
6:15 AM,33.8,32.0,93,30.15,10.0,Calm,Calm,-,N/A,,Clear,0,2012-11-20 12:15:00
6:35 AM,35.6,33.8,93,30.15,5.0,Calm,Calm,-,N/A,,Clear,0,2012-11-20 12:35:00
7:35 AM,33.8,32.0,93,30.17,7.0,Calm,Calm,-,N/A,,Clear,0,2012-11-20 13:35:00
7:55 AM,37.4,35.6,93,30.18,7.0,West,4.6,-,N/A,,Clear,280,2012-11-20 13:55:00
8:15 AM,37.4,35.6,93,30.18,10.0,WNW,4.6,-,N/A,,Clear,290,2012-11-20 14:15:00
8:35 AM,39.2,37.4,93,30.19,10.0,WNW,3.5,-,N/A,,Clear,290,2012-11-20 14:35:00
8:55 AM,42.8,39.2,87,30.19,10.0,WNW,3.5,-,N/A,,Clear,300,2012-11-20 14:55:00
9:15 AM,44.6,39.2,81,30.19,10.0,NW,5.8,-,N/A,,Clear,310,2012-11-20 15:15:00
9:35 AM,46.4,41.0,81,30.19,10.0,NW,8.1,-,N/A,,Clear,310,2012-11-20 15:35:00
10:15 AM,48.2,41.0,76,30.20,10.0,NW,5.8,-,N/A,,Clear,310,2012-11-20 16:15:00
10:35 AM,50.0,41.0,71,30.20,10.0,WNW,5.8,-,N/A,,Clear,290,2012-11-20 16:35:00
10:55 AM,51.8,41.0,67,30.21,10.0,NW,8.1,-,N/A,,Clear,310,2012-11-20 16:55:00
11:15 AM,51.8,42.8,71,30.20,10.0,NW,8.1,-,N/A,,Clear,310,2012-11-20 17:15:00
11:35 AM,53.6,42.8,67,30.20,10.0,WNW,6.9,-,N/A,,Clear,290,2012-11-20 17:35:00
11:55 AM,53.6,42.8,67,30.19,10.0,NW,8.1,-,N/A,,Clear,320,2012-11-20 17:55:00
12:15 PM,55.4,42.8,63,30.19,10.0,WNW,5.8,-,N/A,,Clear,300,2012-11-20 18:15:00
12:35 PM,57.2,44.6,63,30.18,10.0,NW,5.8,-,N/A,,Clear,320,2012-11-20 18:35:00
12:55 PM,59.0,44.6,59,30.18,10.0,WNW,5.8,-,N/A,,Clear,290,2012-11-20 18:55:00
1:15 PM,59.0,44.6,59,30.17,10.0,NW,4.6,-,N/A,,Clear,310,2012-11-20 19:15:00
1:35 PM,59.0,42.8,55,30.17,10.0,NW,5.8,-,N/A,,Clear,310,2012-11-20 19:35:00
1:55 PM,60.8,42.8,52,30.17,10.0,WNW,4.6,-,N/A,,Clear,290,2012-11-20 19:55:00
2:35 PM,60.8,42.8,52,30.15,10.0,NW,5.8,-,N/A,,Clear,320,2012-11-20 20:35:00
2:55 PM,62.6,42.8,48,30.16,10.0,West,3.5,-,N/A,,Clear,270,2012-11-20 20:55:00
3:15 PM,60.8,42.8,52,30.16,10.0,WNW,4.6,-,N/A,,Clear,300,2012-11-20 21:15:00
3:35 PM,62.6,42.8,48,30.17,10.0,NW,5.8,-,N/A,,Clear,310,2012-11-20 21:35:00
3:55 PM,62.6,42.8,48,30.17,10.0,West,4.6,-,N/A,,Clear,280,2012-11-20 21:55:00
4:15 PM,60.8,42.8,52,30.17,10.0,West,3.5,-,N/A,,Clear,270,2012-11-20 22:15:00
4:35 PM,60.8,42.8,52,30.17,10.0,Calm,Calm,-,N/A,,Clear,0,2012-11-20 22:35:00
4:55 PM,60.8,42.8,52,30.17,10.0,Calm,Calm,-,N/A,,Clear,0,2012-11-20 22:55:00
5:15 PM,57.2,42.8,59,30.17,10.0,Calm,Calm,-,N/A,,Clear,0,2012-11-20 23:15:00
5:35 PM,53.6,42.8,67,30.17,10.0,Calm,Calm,-,N/A,,Clear,0,2012-11-20 23:35:00
6:15 PM,50.0,42.8,76,30.17,10.0,Calm,Calm,-,N/A,,Clear,0,2012-11-21 00:15:00
6:35 PM,48.2,41.0,76,30.18,10.0,Calm,Calm,-,N/A,,Clear,0,2012-11-21 00:35:00
6:55 PM,44.6,41.0,87,30.19,10.0,Calm,Calm,-,N/A,,Clear,0,2012-11-21 00:55:00
7:15 PM,42.8,39.2,87,30.19,10.0,Calm,Calm,-,N/A,,Clear,0,2012-11-21 01:15:00
7:35 PM,42.8,37.4,81,30.19,10.0,Calm,Calm,-,N/A,,Clear,0,2012-11-21 01:35:00
7:55 PM,41.0,37.4,87,30.20,10.0,Calm,Calm,-,N/A,,Clear,0,2012-11-21 01:55:00
8:15 PM,41.0,37.4,87,30.20,10.0,Calm,Calm,-,N/A,,Clear,0,2012-11-21 02:15:00
8:35 PM,41.0,37.4,87,30.20,10.0,Calm,Calm,-,N/A,,Clear,0,2012-11-21 02:35:00
8:55 PM,37.4,35.6,93,30.21,10.0,Calm,Calm,-,N/A,,Clear,0,2012-11-21 02:55:00
9:15 PM,37.4,35.6,93,30.21,7.0,Calm,Calm,-,N/A,,Clear,0,2012-11-21 03:15:00
9:35 PM,37.4,35.6,93,30.21,7.0,Calm,Calm,-,N/A,,Clear,0,2012-11-21 03:35:00
9:55 PM,35.6,35.6,100,30.21,7.0,Calm,Calm,-,N/A,,Clear,0,2012-11-21 03:55:00
10:15 PM,35.6,33.8,93,30.21,7.0,Calm,Calm,-,N/A,,Clear,0,2012-11-21 04:15:00
10:35 PM,35.6,33.8,93,30.22,7.0,Calm,Calm,-,N/A,,Clear,0,2012-11-21 04:35:00
10:55 PM,33.8,33.8,100,30.21,4.0,Calm,Calm,-,N/A,,Clear,0,2012-11-21 04:55:00
11:15 PM,33.8,33.8,100,30.22,5.0,Calm,Calm,-,N/A,,Clear,0,2012-11-21 05:15:00
11:35 PM,35.6,33.8,93,30.21,7.0,Calm,Calm,-,N/A,,Clear,0,2012-11-21 05:35:00
11:55 PM,33.8,33.8,100,30.21,4.0,Calm,Calm,-,N/A,,Clear,0,2012-11-21 05:55:00